Station History

Weather Underground - logo

Station Historical Data
Daily Summary for September 29, 2017 Units:  English    Metric   Both
« Previous Day
Next Day »
Daily Weekly Monthly Yearly Custom
  High: Low: Average:
Temperature: 90.6 °F 55.3 °F 72.9 °F
Dew Point: 55.9 °F 45.6 °F 51 °F
Humidity: 81 % 22 % 50 %
Wind Speed: 5.0 mph 0.0 mph 1.2 mph
Wind Gust: 5.0 mph - -
Wind:- - SSW
Pressure: 29.95 in 29.81 in -
Precipitation: 0.00 in    
Historical Graphs
 
 
Tabular Data for September 29, 2017
Time Temperature Dew Point Pressure Wind Wind Speed Wind Gust Humidity Rainfall Rate (Hourly)
00:00 64.8 °F 50.6 °F 29.87 in Calm     60 % 0.00 in
00:07 64.8 °F 49.7 °F 29.87 in ESE 1.2 mph   58 % 0.00 in
00:12 64.9 °F 49.3 °F 29.87 in ESE 1.2 mph   57 % 0.00 in
00:17 65.1 °F 49.5 °F 29.87 in Calm     57 % 0.00 in
00:22 64.9 °F 49.3 °F 29.87 in Calm     57 % 0.00 in
00:27 64.9 °F 49.3 °F 29.87 in ESE 1.2 mph   57 % 0.00 in
00:32 65.1 °F 49.0 °F 29.88 in SE 1.2 mph 1.2 mph 56 % 0.00 in
00:37 65.0 °F 48.4 °F 29.88 in East 2.3 mph 2.3 mph 55 % 0.00 in
00:42 65.4 °F 48.8 °F 29.88 in East 1.2 mph 1.2 mph 55 % 0.00 in
00:47 65.5 °F 48.9 °F 29.88 in Calm     55 % 0.00 in
00:52 65.2 °F 48.6 °F 29.88 in Calm     55 % 0.00 in
00:57 64.7 °F 48.2 °F 29.88 in Calm     55 % 0.00 in
01:02 64.5 °F 47.5 °F 29.88 in East 1.2 mph 1.2 mph 54 % 0.00 in
01:07 64.7 °F 47.7 °F 29.88 in Calm     54 % 0.00 in
01:12 64.7 °F 47.7 °F 29.88 in Calm     54 % 0.00 in
01:17 64.7 °F 47.2 °F 29.88 in Calm     53 % 0.00 in
01:22 64.6 °F 47.1 °F 29.89 in Calm     53 % 0.00 in
01:27 64.3 °F 47.8 °F 29.89 in Calm     55 % 0.00 in
01:32 64.1 °F 47.6 °F 29.89 in East 1.0 mph   55 % 0.00 in
01:37 64.0 °F 47.5 °F 29.89 in Calm   0.1 mph 55 % 0.00 in
01:42 63.9 °F 47.4 °F 29.89 in Calm     55 % 0.00 in
01:47 63.7 °F 47.2 °F 29.89 in Calm     55 % 0.00 in
01:52 63.5 °F 47.5 °F 29.89 in Calm     56 % 0.00 in
01:57 63.0 °F 48.4 °F 29.90 in Calm     59 % 0.00 in
02:02 62.3 °F 49.1 °F 29.90 in Calm     62 % 0.00 in
02:07 61.7 °F 49.8 °F 29.90 in Calm     65 % 0.00 in
02:12 61.4 °F 49.9 °F 29.90 in Calm     66 % 0.00 in
02:17 61.1 °F 49.7 °F 29.90 in Calm     66 % 0.00 in
02:22 60.8 °F 49.8 °F 29.90 in Calm     67 % 0.00 in
02:27 60.3 °F 50.1 °F 29.90 in Calm     69 % 0.00 in
02:32 60.2 °F 50.4 °F 29.90 in Calm     70 % 0.00 in
02:37 60.0 °F 50.2 °F 29.90 in Calm     70 % 0.00 in
02:42 59.9 °F 50.8 °F 29.90 in Calm     72 % 0.00 in
02:47 59.7 °F 51.0 °F 29.90 in Calm     73 % 0.00 in
02:52 59.8 °F 50.8 °F 29.90 in Calm     72 % 0.00 in
02:57 59.6 °F 50.2 °F 29.90 in Calm     71 % 0.00 in
03:02 59.7 °F 50.7 °F 29.90 in Calm     72 % 0.00 in
03:07 59.6 °F 50.6 °F 29.90 in Calm     72 % 0.00 in
03:12 59.4 °F 50.4 °F 29.90 in Calm     72 % 0.00 in
03:17 59.7 °F 49.5 °F 29.90 in Calm     69 % 0.00 in
03:22 59.9 °F 48.9 °F 29.90 in Calm     67 % 0.00 in
03:27 59.7 °F 49.1 °F 29.89 in Calm     68 % 0.00 in
03:32 59.7 °F 49.5 °F 29.89 in Calm     69 % 0.00 in
03:37 59.8 °F 49.2 °F 29.89 in Calm     68 % 0.00 in
03:42 59.8 °F 50.8 °F 29.89 in Calm     72 % 0.00 in
03:47 59.6 °F 50.6 °F 29.89 in Calm     72 % 0.00 in
03:52 59.6 °F 50.2 °F 29.89 in Calm     71 % 0.00 in
03:57 59.3 °F 50.3 °F 29.89 in Calm     72 % 0.00 in
04:02 59.1 °F 50.5 °F 29.89 in Calm     73 % 0.00 in
04:07 59.1 °F 50.5 °F 29.89 in East 1.2 mph 1.2 mph 73 % 0.00 in
04:12 58.5 °F 50.2 °F 29.89 in Calm     74 % 0.00 in
04:17 58.1 °F 49.9 °F 29.89 in East 1.2 mph   74 % 0.00 in
04:22 58.2 °F 49.6 °F 29.89 in Calm     73 % 0.00 in
04:27 58.2 °F 49.6 °F 29.89 in Calm     73 % 0.00 in
04:33 58.1 °F 49.1 °F 29.90 in Calm     72 % 0.00 in
04:38 58.1 °F 49.5 °F 29.90 in Calm     73 % 0.00 in
04:43 58.0 °F 49.8 °F 29.90 in Calm     74 % 0.00 in
04:48 57.8 °F 49.2 °F 29.89 in Calm     73 % 0.00 in
04:53 57.6 °F 49.4 °F 29.89 in Calm     74 % 0.00 in
04:58 57.6 °F 49.7 °F 29.89 in Calm     75 % 0.00 in
05:03 57.8 °F 49.2 °F 29.90 in Calm     73 % 0.00 in
05:08 58.1 °F 48.7 °F 29.89 in Calm     71 % 0.00 in
05:13 58.1 °F 49.1 °F 29.90 in Calm     72 % 0.00 in
05:18 58.6 °F 49.2 °F 29.90 in Calm     71 % 0.00 in
05:23 58.7 °F 49.7 °F 29.90 in Calm     72 % 0.00 in
05:28 58.6 °F 49.2 °F 29.90 in Calm     71 % 0.00 in
05:33 58.4 °F 49.4 °F 29.90 in Calm     72 % 0.00 in
05:38 58.2 °F 49.6 °F 29.90 in Calm     73 % 0.00 in
05:43 58.1 °F 49.9 °F 29.90 in Calm     74 % 0.00 in
05:48 58.2 °F 49.6 °F 29.90 in Calm     73 % 0.00 in
05:53 58.2 °F 50.0 °F 29.90 in Calm     74 % 0.00 in
05:58 58.2 °F 50.0 °F 29.91 in Calm     74 % 0.00 in
06:03 58.0 °F 49.4 °F 29.91 in Calm     73 % 0.00 in
06:08 58.0 °F 49.0 °F 29.91 in Calm     72 % 0.00 in
06:13 58.0 °F 49.4 °F 29.91 in Calm     73 % 0.00 in
06:18 57.9 °F 49.3 °F 29.91 in Calm     73 % 0.00 in
06:23 58.0 °F 49.0 °F 29.91 in Calm     72 % 0.00 in
06:28 58.0 °F 50.1 °F 29.91 in Calm     75 % 0.00 in
06:33 57.9 °F 49.7 °F 29.91 in Calm     74 % 0.00 in
06:38 57.8 °F 49.6 °F 29.91 in Calm     74 % 0.00 in
06:43 57.9 °F 49.7 °F 29.92 in Calm     74 % 0.00 in
06:48 57.6 °F 50.4 °F 29.92 in Calm     77 % 0.00 in
06:53 57.0 °F 49.9 °F 29.92 in Calm     77 % 0.00 in
06:58 56.2 °F 49.4 °F 29.92 in Calm     78 % 0.00 in
07:03 55.9 °F 49.8 °F 29.92 in Calm     80 % 0.00 in
07:08 55.7 °F 49.6 °F 29.93 in Calm     80 % 0.00 in
07:13 55.4 °F 49.3 °F 29.93 in Calm     80 % 0.00 in
07:18 55.3 °F 49.6 °F 29.93 in Calm     81 % 0.00 in
07:23 55.3 °F 49.6 °F 29.93 in Calm     81 % 0.00 in
07:28 55.5 °F 49.4 °F 29.93 in Calm     80 % 0.00 in
07:33 56.1 °F 49.3 °F 29.93 in East 1.2 mph 1.2 mph 78 % 0.00 in
07:38 56.9 °F 49.8 °F 29.94 in Calm     77 % 0.00 in
07:43 57.6 °F 48.3 °F 29.94 in East 1.2 mph   71 % 0.00 in
07:48 58.9 °F 48.4 °F 29.94 in East 1.2 mph 1.2 mph 68 % 0.00 in
07:53 59.9 °F 48.5 °F 29.94 in East 2.3 mph 2.3 mph 66 % 0.00 in
07:58 60.5 °F 48.7 °F 29.94 in East 1.2 mph 1.2 mph 65 % 0.00 in
08:03 61.3 °F 49.0 °F 29.94 in East 1.2 mph   64 % 0.00 in
08:05 61.7 °F 49.0 °F 29.95 in East 2.0 mph 2.0 mph 63 % 0.00 in
08:10 63.0 °F 48.9 °F 29.95 in SE 3.5 mph 3.5 mph 60 % 0.00 in
08:15 64.1 °F 48.5 °F 29.95 in ENE 3.5 mph 3.5 mph 57 % 0.00 in
08:20 64.7 °F 48.6 °F 29.95 in SSE 2.3 mph 2.3 mph 56 % 0.00 in
08:25 65.3 °F 49.7 °F 29.95 in SSE 2.3 mph 2.3 mph 57 % 0.00 in
08:30 66.0 °F 50.3 °F 29.95 in SSE 2.3 mph 2.3 mph 57 % 0.00 in
08:35 66.5 °F 51.3 °F 29.95 in SSE 1.2 mph 1.2 mph 58 % 0.00 in
08:40 66.8 °F 51.1 °F 29.95 in NNE 2.3 mph 2.3 mph 57 % 0.00 in
08:45 67.0 °F 51.3 °F 29.95 in East 3.5 mph 3.5 mph 57 % 0.00 in
08:50 67.7 °F 51.9 °F 29.95 in SSW 2.3 mph 2.3 mph 57 % 0.00 in
08:55 68.4 °F 52.6 °F 29.95 in SE 2.3 mph 2.3 mph 57 % 0.00 in
09:00 69.4 °F 52.0 °F 29.94 in SE 3.0 mph 3.0 mph 54 % 0.00 in
09:04 69.9 °F 52.0 °F 29.94 in East 3.0 mph 3.0 mph 53 % 0.00 in
09:09 70.5 °F 52.5 °F 29.94 in ESE 2.3 mph 2.3 mph 53 % 0.00 in
09:14 71.3 °F 52.8 °F 29.93 in East 2.3 mph 2.3 mph 52 % 0.00 in
09:19 72.1 °F 53.0 °F 29.93 in SSE 3.5 mph 3.5 mph 51 % 0.00 in
09:24 72.6 °F 51.8 °F 29.93 in ESE 4.6 mph 4.6 mph 48 % 0.00 in
09:29 73.2 °F 51.8 °F 29.93 in East 4.6 mph 4.6 mph 47 % 0.00 in
09:34 73.8 °F 52.3 °F 29.93 in East 3.5 mph 3.5 mph 47 % 0.00 in
09:39 74.6 °F 52.4 °F 29.93 in ENE 3.0 mph 3.0 mph 46 % 0.00 in
09:44 75.3 °F 51.9 °F 29.93 in East 3.5 mph 3.5 mph 44 % 0.00 in
09:49 76.0 °F 51.9 °F 29.93 in East 4.6 mph 4.6 mph 43 % 0.00 in
09:54 76.6 °F 53.1 °F 29.93 in SSE 3.5 mph 3.5 mph 44 % 0.00 in
09:59 77.3 °F 53.1 °F 29.93 in NE 3.5 mph 3.5 mph 43 % 0.00 in
10:04 77.9 °F 51.6 °F 29.93 in SE 3.5 mph 3.5 mph 40 % 0.00 in
10:09 78.6 °F 52.3 °F 29.93 in SE 3.5 mph 3.5 mph 40 % 0.00 in
10:14 79.2 °F 52.1 °F 29.93 in SSW 3.5 mph 3.5 mph 39 % 0.00 in
10:19 79.7 °F 51.1 °F 29.93 in East 5.0 mph 5.0 mph 37 % 0.00 in
10:24 80.0 °F 51.4 °F 29.93 in ENE 4.6 mph 4.6 mph 37 % 0.00 in
10:30 80.2 °F 50.8 °F 29.93 in East 3.5 mph 3.5 mph 36 % 0.00 in
10:35 80.5 °F 51.1 °F 29.93 in SSE 4.6 mph 4.6 mph 36 % 0.00 in
10:40 81.2 °F 52.4 °F 29.93 in SSE 3.5 mph 3.5 mph 37 % 0.00 in
10:45 81.3 °F 51.0 °F 29.93 in SSW 3.5 mph 3.5 mph 35 % 0.00 in
10:50 81.2 °F 51.7 °F 29.93 in NE 2.3 mph 2.3 mph 36 % 0.00 in
10:55 81.7 °F 52.1 °F 29.93 in SSE 1.2 mph 1.2 mph 36 % 0.00 in
11:00 81.5 °F 52.0 °F 29.94 in SE 2.3 mph 2.3 mph 36 % 0.00 in
11:05 80.7 °F 51.3 °F 29.93 in SE 3.5 mph 3.5 mph 36 % 0.00 in
11:10 80.7 °F 53.4 °F 29.93 in South 1.2 mph 1.2 mph 39 % 0.00 in
11:15 81.3 °F 51.8 °F 29.93 in ENE 2.3 mph 2.3 mph 36 % 0.00 in
11:20 81.7 °F 52.9 °F 29.93 in Calm     37 % 0.00 in
11:25 82.3 °F 51.9 °F 29.93 in South 2.3 mph 2.3 mph 35 % 0.00 in
11:30 82.6 °F 52.2 °F 29.92 in NE 3.5 mph 3.5 mph 35 % 0.00 in
11:35 83.1 °F 51.0 °F 29.92 in SSE 4.6 mph 4.6 mph 33 % 0.00 in
11:40 83.6 °F 52.3 °F 29.92 in SSE 2.3 mph 2.3 mph 34 % 0.00 in
11:45 83.7 °F 52.3 °F 29.92 in East 3.5 mph 3.5 mph 34 % 0.00 in
11:50 83.8 °F 54.0 °F 29.92 in East 2.3 mph 2.3 mph 36 % 0.00 in
11:55 84.3 °F 53.7 °F 29.92 in Calm     35 % 0.00 in
12:00 84.2 °F 52.0 °F 29.91 in ESE 3.5 mph 3.5 mph 33 % 0.00 in
12:05 84.3 °F 52.1 °F 29.91 in SE 4.0 mph 4.0 mph 33 % 0.00 in
12:10 84.3 °F 51.2 °F 29.91 in SSE 3.5 mph 3.5 mph 32 % 0.00 in
12:15 84.5 °F 52.2 °F 29.91 in ESE 3.5 mph 3.5 mph 33 % 0.00 in
12:20 84.9 °F 51.7 °F 29.91 in SSE 4.0 mph 4.0 mph 32 % 0.00 in
12:25 85.2 °F 52.8 °F 29.91 in ESE 2.3 mph 2.3 mph 33 % 0.00 in
12:30 85.8 °F 51.7 °F 29.91 in NNE 1.2 mph 1.2 mph 31 % 0.00 in
12:35 86.3 °F 52.1 °F 29.91 in SSE 1.2 mph 1.2 mph 31 % 0.00 in
12:40 86.9 °F 52.6 °F 29.90 in SSE 2.3 mph 2.3 mph 31 % 0.00 in
12:45 87.1 °F 51.0 °F 29.90 in South 3.5 mph 3.5 mph 29 % 0.00 in
12:50 87.3 °F 51.2 °F 29.90 in South 3.5 mph 3.5 mph 29 % 0.00 in
12:55 87.3 °F 52.1 °F 29.90 in South 3.5 mph 3.5 mph 30 % 0.00 in
13:00 87.3 °F 52.1 °F 29.90 in NNW 2.3 mph 2.3 mph 30 % 0.00 in
13:05 87.0 °F 52.7 °F 29.89 in NNW 2.3 mph 2.3 mph 31 % 0.00 in
13:10 87.2 °F 51.1 °F 29.89 in North 1.2 mph 1.2 mph 29 % 0.00 in
13:15 87.7 °F 52.4 °F 29.89 in SSE 1.2 mph   30 % 0.00 in
13:20 88.1 °F 50.9 °F 29.88 in NNW 2.3 mph 2.3 mph 28 % 0.00 in
13:25 88.3 °F 50.1 °F 29.88 in NW 2.0 mph 2.0 mph 27 % 0.00 in
13:30 88.5 °F 49.2 °F 29.88 in NNW 3.5 mph 3.5 mph 26 % 0.00 in
13:35 89.0 °F 49.7 °F 29.88 in ESE 1.2 mph 1.2 mph 26 % 0.00 in
13:40 89.1 °F 50.8 °F 29.87 in NNE 2.3 mph 2.3 mph 27 % 0.00 in
13:45 89.2 °F 53.7 °F 29.87 in Calm   0.3 mph 30 % 0.00 in
13:50 89.5 °F 49.0 °F 29.87 in NNW 1.2 mph 1.2 mph 25 % 0.00 in
13:54 89.3 °F 50.9 °F 29.87 in NW 1.0 mph 1.0 mph 27 % 0.00 in
13:56 89.3 °F 49.9 °F 29.87 in WNW 2.3 mph 2.3 mph 26 % 0.00 in
14:01 89.4 °F 50.0 °F 29.87 in WSW 1.2 mph 1.2 mph 26 % 0.00 in
14:06 89.6 °F 51.2 °F 29.86 in SSE 1.2 mph 1.2 mph 27 % 0.00 in
14:11 90.0 °F 51.5 °F 29.86 in West 2.3 mph 2.3 mph 27 % 0.00 in
14:16 89.6 °F 51.2 °F 29.86 in NW 2.0 mph 2.0 mph 27 % 0.00 in
14:21 89.5 °F 52.1 °F 29.86 in NW 2.3 mph 2.3 mph 28 % 0.00 in
14:26 89.6 °F 49.1 °F 29.86 in West 3.5 mph 3.5 mph 25 % 0.00 in
14:31 89.7 °F 51.3 °F 29.86 in WNW 2.0 mph 2.0 mph 27 % 0.00 in
14:36 89.7 °F 52.3 °F 29.86 in NW 1.2 mph   28 % 0.00 in
14:41 89.6 °F 52.2 °F 29.86 in WNW 2.3 mph 2.3 mph 28 % 0.00 in
14:46 90.0 °F 50.5 °F 29.85 in WNW 1.2 mph 1.2 mph 26 % 0.00 in
14:51 90.0 °F 51.5 °F 29.85 in NW 2.0 mph 2.0 mph 27 % 0.00 in
14:56 90.0 °F 50.5 °F 29.85 in West 2.0 mph 2.0 mph 26 % 0.00 in
15:01 90.1 °F 50.6 °F 29.85 in West 2.3 mph 2.3 mph 26 % 0.00 in
15:06 90.1 °F 50.6 °F 29.85 in NW 1.2 mph 1.2 mph 26 % 0.00 in
15:11 90.2 °F 51.7 °F 29.85 in NW 1.2 mph 1.2 mph 27 % 0.00 in
15:16 90.2 °F 49.6 °F 29.85 in WNW 1.2 mph   25 % 0.00 in
15:21 90.3 °F 48.6 °F 29.85 in NW 2.3 mph 2.3 mph 24 % 0.00 in
15:26 90.5 °F 48.8 °F 29.84 in WNW 3.5 mph 3.5 mph 24 % 0.00 in
15:31 90.5 °F 46.5 °F 29.85 in WNW 3.5 mph 3.5 mph 22 % 0.00 in
15:36 90.4 °F 46.4 °F 29.84 in NW 2.3 mph 2.3 mph 22 % 0.00 in
15:42 90.5 °F 48.8 °F 29.84 in NW 2.3 mph 2.3 mph 24 % 0.00 in
15:47 90.4 °F 47.6 °F 29.84 in NW 4.6 mph 4.6 mph 23 % 0.00 in
15:52 90.6 °F 48.9 °F 29.84 in WNW 2.3 mph 2.3 mph 24 % 0.00 in
15:57 90.5 °F 48.8 °F 29.84 in WNW 3.5 mph 3.5 mph 24 % 0.00 in
16:02 90.2 °F 48.5 °F 29.84 in NNE 3.5 mph 3.5 mph 24 % 0.00 in
16:07 90.3 °F 48.6 °F 29.83 in WNW 4.0 mph 4.0 mph 24 % 0.00 in
16:12 90.1 °F 47.3 °F 29.83 in NW 2.3 mph 2.3 mph 23 % 0.00 in
16:17 90.0 °F 47.2 °F 29.83 in NW 3.5 mph 3.5 mph 23 % 0.00 in
16:22 90.0 °F 48.4 °F 29.83 in NNW 2.3 mph 2.3 mph 24 % 0.00 in
16:27 89.9 °F 48.3 °F 29.83 in NW 2.3 mph 2.3 mph 24 % 0.00 in
16:32 89.8 °F 48.2 °F 29.82 in NW 1.2 mph 1.2 mph 24 % 0.00 in
16:37 89.9 °F 48.3 °F 29.82 in NW 3.5 mph 3.5 mph 24 % 0.00 in
16:42 89.9 °F 47.1 °F 29.82 in NW 4.6 mph 4.6 mph 23 % 0.00 in
16:47 89.5 °F 45.6 °F 29.82 in NW 3.5 mph 3.5 mph 22 % 0.00 in
16:52 89.3 °F 46.6 °F 29.82 in NW 2.3 mph 2.3 mph 23 % 0.00 in
16:57 89.3 °F 47.8 °F 29.82 in WNW 2.3 mph 2.3 mph 24 % 0.00 in
17:02 89.2 °F 46.6 °F 29.82 in NW 4.6 mph 4.6 mph 23 % 0.00 in
17:07 89.2 °F 47.7 °F 29.82 in NW 3.0 mph 3.0 mph 24 % 0.00 in
17:12 89.1 °F 47.6 °F 29.82 in WNW 3.5 mph 3.5 mph 24 % 0.00 in
17:17 88.8 °F 47.4 °F 29.82 in NW 2.3 mph 2.3 mph 24 % 0.00 in
17:22 88.6 °F 48.3 °F 29.82 in NNW 2.3 mph 2.3 mph 25 % 0.00 in
17:27 88.2 °F 49.0 °F 29.82 in WNW 1.2 mph 1.2 mph 26 % 0.00 in
17:32 87.9 °F 50.7 °F 29.82 in WNW 1.2 mph   28 % 0.00 in
17:37 87.3 °F 50.2 °F 29.82 in NW 1.2 mph 1.2 mph 28 % 0.00 in
17:42 86.9 °F 51.7 °F 29.82 in NW 1.2 mph 1.2 mph 30 % 0.00 in
17:47 86.5 °F 52.3 °F 29.82 in WNW 1.2 mph   31 % 0.00 in
17:52 86.1 °F 51.0 °F 29.82 in NW 1.2 mph 1.2 mph 30 % 0.00 in
17:57 85.7 °F 51.6 °F 29.82 in Calm   0.1 mph 31 % 0.00 in
18:02 85.2 °F 51.1 °F 29.82 in NW 1.2 mph   31 % 0.00 in
18:07 84.7 °F 51.6 °F 29.82 in Calm     32 % 0.00 in
18:12 84.3 °F 51.2 °F 29.81 in Calm     32 % 0.00 in
18:17 83.9 °F 51.7 °F 29.82 in Calm     33 % 0.00 in
18:22 83.7 °F 51.5 °F 29.81 in Calm     33 % 0.00 in
18:27 83.5 °F 53.0 °F 29.81 in Calm     35 % 0.00 in
18:32 83.1 °F 53.4 °F 29.81 in Calm     36 % 0.00 in
18:37 82.4 °F 52.8 °F 29.81 in Calm     36 % 0.00 in
18:43 81.8 °F 55.1 °F 29.81 in Calm     40 % 0.00 in
18:48 81.0 °F 55.7 °F 29.81 in Calm     42 % 0.00 in
18:53 80.4 °F 55.2 °F 29.81 in Calm     42 % 0.00 in
18:58 79.8 °F 55.3 °F 29.81 in Calm     43 % 0.00 in
19:03 79.2 °F 54.8 °F 29.81 in Calm     43 % 0.00 in
19:08 78.6 °F 55.5 °F 29.81 in Calm     45 % 0.00 in
19:13 77.9 °F 55.5 °F 29.81 in Calm     46 % 0.00 in
19:14 77.8 °F 54.8 °F 29.81 in Calm     45 % 0.00 in
19:19 77.2 °F 55.4 °F 29.81 in Calm     47 % 0.00 in
19:24 76.5 °F 54.8 °F 29.81 in Calm     47 % 0.00 in
19:29 75.9 °F 55.4 °F 29.81 in Calm     49 % 0.00 in
19:34 75.2 °F 55.8 °F 29.81 in Calm     51 % 0.00 in
19:39 74.8 °F 54.9 °F 29.81 in Calm     50 % 0.00 in
19:44 74.4 °F 55.1 °F 29.81 in Calm     51 % 0.00 in
19:49 74.1 °F 55.9 °F 29.82 in Calm     53 % 0.00 in
19:54 73.8 °F 55.6 °F 29.81 in Calm     53 % 0.00 in
19:59 73.4 °F 55.2 °F 29.81 in Calm     53 % 0.00 in
20:04 73.0 °F 54.9 °F 29.81 in Calm     53 % 0.00 in
20:09 72.8 °F 55.2 °F 29.81 in Calm     54 % 0.00 in
20:14 72.7 °F 54.6 °F 29.82 in Calm     53 % 0.00 in
20:19 73.3 °F 53.5 °F 29.82 in Calm     50 % 0.00 in
20:24 73.5 °F 53.7 °F 29.82 in Calm     50 % 0.00 in
20:29 73.5 °F 54.8 °F 29.82 in Calm     52 % 0.00 in
20:34 73.4 °F 55.2 °F 29.83 in Calm     53 % 0.00 in
20:39 73.4 °F 54.2 °F 29.83 in Calm     51 % 0.00 in
20:44 73.5 °F 52.0 °F 29.83 in Calm     47 % 0.00 in
20:49 74.4 °F 51.7 °F 29.83 in NNW 1.2 mph   45 % 0.00 in
20:54 75.1 °F 51.7 °F 29.83 in Calm     44 % 0.00 in
20:59 74.9 °F 53.3 °F 29.83 in Calm     47 % 0.00 in
21:04 74.3 °F 52.8 °F 29.83 in Calm     47 % 0.00 in
21:09 73.6 °F 52.7 °F 29.83 in Calm     48 % 0.00 in
21:14 73.3 °F 51.8 °F 29.84 in Calm     47 % 0.00 in
21:19 73.4 °F 51.9 °F 29.84 in Calm     47 % 0.00 in
21:24 73.2 °F 54.0 °F 29.84 in Calm     51 % 0.00 in
21:29 72.3 °F 54.2 °F 29.84 in Calm     53 % 0.00 in
21:34 71.4 °F 55.4 °F 29.84 in Calm     57 % 0.00 in
21:39 70.7 °F 55.2 °F 29.84 in Calm     58 % 0.00 in
21:44 69.8 °F 54.8 °F 29.83 in Calm     59 % 0.00 in
21:49 69.4 °F 54.4 °F 29.83 in Calm     59 % 0.00 in
21:54 69.1 °F 55.1 °F 29.83 in Calm     61 % 0.00 in
21:59 69.0 °F 54.1 °F 29.83 in WNW 1.2 mph   59 % 0.00 in
22:04 68.8 °F 53.9 °F 29.83 in WNW 1.2 mph   59 % 0.00 in
22:09 68.6 °F 53.7 °F 29.83 in Calm     59 % 0.00 in
22:14 68.5 °F 53.1 °F 29.83 in Calm     58 % 0.00 in
22:19 68.2 °F 53.3 °F 29.83 in Calm     59 % 0.00 in
22:24 67.7 °F 53.8 °F 29.83 in Calm     61 % 0.00 in
22:29 67.3 °F 53.4 °F 29.83 in WNW 1.2 mph   61 % 0.00 in
22:35 67.3 °F 52.5 °F 29.83 in WNW 1.2 mph   59 % 0.00 in
22:40 67.3 °F 53.4 °F 29.83 in Calm     61 % 0.00 in
22:45 66.9 °F 53.9 °F 29.84 in Calm     63 % 0.00 in
22:50 66.1 °F 53.1 °F 29.84 in Calm     63 % 0.00 in
22:55 65.6 °F 53.1 °F 29.83 in Calm     64 % 0.00 in
23:00 65.4 °F 52.5 °F 29.84 in Calm     63 % 0.00 in
23:05 65.6 °F 52.7 °F 29.84 in Calm     63 % 0.00 in
23:10 65.3 °F 52.8 °F 29.84 in WNW 1.2 mph   64 % 0.00 in
23:15 64.8 °F 51.9 °F 29.84 in Calm     63 % 0.00 in
23:20 64.6 °F 52.1 °F 29.84 in NNE 1.2 mph 1.2 mph 64 % 0.00 in
23:25 64.1 °F 52.5 °F 29.84 in Calm     66 % 0.00 in
23:30 63.9 °F 52.7 °F 29.84 in Calm     67 % 0.00 in
23:35 63.6 °F 53.2 °F 29.84 in Calm     69 % 0.00 in
23:40 63.2 °F 53.3 °F 29.85 in NNE 1.2 mph   70 % 0.00 in
23:45 62.7 °F 53.2 °F 29.85 in Calm     71 % 0.00 in
23:50 62.3 °F 53.2 °F 29.85 in Calm     72 % 0.00 in
23:53 62.3 °F 53.2 °F 29.85 in Calm     72 % 0.00 in
23:58 62.3 °F 53.2 °F 29.85 in Calm     72 % 0.00 in
Park Place, Exeter, Tulare County, California, USA
Compliments of Weather Underground - 2.75 mb